Time,TemperatureF,DewpointF,PressureIn,WindDirection,WindDirectionDegrees,WindSpeedMPH,WindSpeedGustMPH,Humidity,HourlyPrecipIn,Conditions,Clouds,dailyrainin,SoftwareType,DateUTC
2013-03-19 00:03:00,26.0,-99.9,-100.00,North,0,0.0,0.0,-999,0.00,,,-99.99,,2013-03-19 06:03:00,
2013-03-19 00:12:00,26.0,-99.9,-100.00,North,0,0.0,0.0,-999,0.00,,,-99.99,,2013-03-19 06:12:00,
2013-03-19 00:22:00,27.0,-99.9,-100.00,North,0,0.0,0.0,-999,0.00,,,-99.99,,2013-03-19 06:22:00,
2013-03-19 00:32:00,27.0,-99.9,-100.00,North,0,0.0,0.0,-999,0.00,,,-99.99,,2013-03-19 06:32:00,
2013-03-19 00:42:00,27.0,-99.9,-100.00,North,0,0.0,0.0,-999,0.00,,,-99.99,,2013-03-19 06:42:00,
2013-03-19 00:53:00,25.0,-99.9,-100.00,North,0,0.0,0.0,-999,0.00,,,-99.99,,2013-03-19 06:53:00,
2013-03-19 01:03:00,26.0,-99.9,-100.00,North,0,0.0,0.0,-999,0.00,,,-99.99,,2013-03-19 07:03:00,
2013-03-19 01:12:00,26.0,-99.9,-100.00,North,0,0.0,0.0,-999,0.00,,,-99.99,,2013-03-19 07:12:00,
2013-03-19 01:22:00,25.0,-99.9,-100.00,North,0,0.0,0.0,-999,0.00,,,-99.99,,2013-03-19 07:22:00,
2013-03-19 01:32:00,25.0,-99.9,-100.00,NNW,330,1.0,4.0,-999,0.00,,,-99.99,,2013-03-19 07:32:00,
2013-03-19 01:42:00,25.0,-99.9,-100.00,NNW,330,1.0,4.0,-999,0.00,,,-99.99,,2013-03-19 07:42:00,
2013-03-19 01:53:00,25.0,-99.9,-100.00,North,0,0.0,0.0,-999,0.00,,,-99.99,,2013-03-19 07:53:00,
2013-03-19 02:03:00,24.0,-99.9,-100.00,North,0,0.0,0.0,-999,0.00,,,-99.99,,2013-03-19 08:03:00,
2013-03-19 02:13:00,24.0,-99.9,-100.00,North,0,0.0,0.0,-999,0.00,,,-99.99,,2013-03-19 08:13:00,
2013-03-19 02:22:00,25.0,-99.9,-100.00,NE,42,1.0,5.0,-999,0.00,,,-99.99,,2013-03-19 08:22:00,
2013-03-19 02:33:00,25.0,-99.9,-100.00,NE,42,1.0,4.0,-999,0.00,,,-99.99,,2013-03-19 08:33:00,
2013-03-19 02:43:00,25.0,-99.9,-100.00,NE,42,1.0,4.0,-999,0.00,,,-99.99,,2013-03-19 08:43:00,
2013-03-19 02:53:00,24.0,-99.9,-100.00,NNE,17,5.0,10.0,-999,0.00,,,-99.99,,2013-03-19 08:53:00,
2013-03-19 03:03:00,24.0,-99.9,-100.00,North,353,10.0,12.0,-999,0.00,,,-99.99,,2013-03-19 09:03:00,
2013-03-19 03:12:00,24.0,-99.9,-100.00,North,353,10.0,12.0,-999,0.00,,,-99.99,,2013-03-19 09:12:00,
2013-03-19 03:23:00,22.0,-99.9,-100.00,North,357,8.0,12.0,-999,0.00,,,-99.99,,2013-03-19 09:23:00,
2013-03-19 03:33:00,21.0,-99.9,-100.00,North,7,7.0,9.0,-999,0.00,,,-99.99,,2013-03-19 09:33:00,
2013-03-19 03:43:00,21.0,-99.9,-100.00,North,7,7.0,9.0,-999,0.00,,,-99.99,,2013-03-19 09:43:00,
2013-03-19 03:53:00,20.0,-99.9,-100.00,NNE,24,7.0,10.0,-999,0.00,,,-99.99,,2013-03-19 09:53:00,
2013-03-19 04:04:00,19.0,-99.9,-100.00,NE,49,9.0,12.0,-999,0.00,,,-99.99,,2013-03-19 10:04:00,
2013-03-19 04:13:00,19.0,-99.9,-100.00,NE,49,9.0,12.0,-999,0.00,,,-99.99,,2013-03-19 10:13:00,
2013-03-19 04:23:00,19.0,-99.9,-100.00,North,1,9.0,14.0,-999,0.00,,,-99.99,,2013-03-19 10:23:00,
2013-03-19 04:33:00,18.0,-99.9,-100.00,North,3,9.0,12.0,-999,0.00,,,-99.99,,2013-03-19 10:33:00,
2013-03-19 04:42:00,18.0,-99.9,-100.00,North,3,9.0,12.0,-999,0.00,,,-99.99,,2013-03-19 10:42:00,
2013-03-19 04:54:00,16.0,-99.9,-100.00,North,8,9.0,14.0,-999,0.00,,,-99.99,,2013-03-19 10:54:00,
2013-03-19 05:03:00,16.0,-99.9,-100.00,North,3,9.0,12.0,-999,0.00,,,-99.99,,2013-03-19 11:03:00,
2013-03-19 05:12:00,16.0,-99.9,-100.00,North,3,9.0,12.0,-999,0.00,,,-99.99,,2013-03-19 11:12:00,
2013-03-19 05:22:00,14.0,-99.9,-100.00,NNE,24,8.0,10.0,-999,0.00,,,-99.99,,2013-03-19 11:22:00,
2013-03-19 05:33:00,13.0,-99.9,-100.00,North,7,8.0,10.0,-999,0.00,,,-99.99,,2013-03-19 11:33:00,
2013-03-19 05:43:00,13.0,-99.9,-100.00,North,7,8.0,10.0,-999,0.00,,,-99.99,,2013-03-19 11:43:00,
2013-03-19 05:53:00,11.0,-99.9,-100.00,North,7,7.0,9.0,-999,0.00,,,-99.99,,2013-03-19 11:53:00,
2013-03-19 06:02:00,11.0,-99.9,-100.00,NE,53,7.0,9.0,-999,0.00,,,-99.99,,2013-03-19 12:02:00,
2013-03-19 06:12:00,11.0,-99.9,-100.00,NNE,13,7.0,9.0,-999,0.00,,,-99.99,,2013-03-19 12:12:00,
2013-03-19 06:23:00,11.0,-99.9,-100.00,NNE,13,7.0,9.0,-999,0.00,,,-99.99,,2013-03-19 12:23:00,
2013-03-19 06:33:00,10.0,-99.9,-100.00,North,7,7.0,9.0,-999,0.00,,,-99.99,,2013-03-19 12:33:00,
2013-03-19 06:43:00,10.0,-99.9,-100.00,North,7,7.0,9.0,-999,0.00,,,-99.99,,2013-03-19 12:43:00,
2013-03-19 06:52:00,9.0,-99.9,-100.00,North,0,0.0,0.0,-999,0.00,,,-99.99,,2013-03-19 12:52:00,
2013-03-19 07:03:00,9.0,-99.9,-100.00,NNE,18,5.0,7.0,-999,0.00,,,-99.99,,2013-03-19 13:03:00,
2013-03-19 07:13:00,9.0,-99.9,-100.00,NNE,18,5.0,7.0,-999,0.00,,,-99.99,,2013-03-19 13:13:00,
2013-03-19 07:23:00,9.0,-99.9,-100.00,NNE,28,6.0,8.0,-999,0.00,,,-99.99,,2013-03-19 13:23:00,
2013-03-19 07:33:00,8.0,-99.9,-100.00,NNE,18,3.0,7.0,-999,0.00,,,-99.99,,2013-03-19 13:33:00,
2013-03-19 07:42:00,8.0,-99.9,-100.00,NNE,18,3.0,7.0,-999,0.00,,,-99.99,,2013-03-19 13:42:00,
2013-03-19 07:53:00,9.0,-99.9,-100.00,NNE,25,6.0,8.0,-999,0.00,,,-99.99,,2013-03-19 13:53:00,
2013-03-19 08:02:00,9.0,-99.9,-100.00,North,0,0.0,0.0,-999,0.00,,,-99.99,,2013-03-19 14:02:00,
2013-03-19 08:12:00,9.0,-99.9,-100.00,North,0,0.0,0.0,-999,0.00,,,-99.99,,2013-03-19 14:12:00,
2013-03-19 08:23:00,8.0,-99.9,-100.00,NNE,32,5.0,7.0,-999,0.00,,,-99.99,,2013-03-19 14:23:00,
2013-03-19 08:33:00,9.0,-99.9,-100.00,North,11,5.0,8.0,-999,0.00,,,-99.99,,2013-03-19 14:33:00,
2013-03-19 08:42:00,9.0,-99.9,-100.00,North,11,5.0,8.0,-999,0.00,,,-99.99,,2013-03-19 14:42:00,
2013-03-19 08:53:00,10.0,-99.9,-100.00,NNE,24,5.0,7.0,-999,0.00,,,-99.99,,2013-03-19 14:53:00,
2013-03-19 09:03:00,10.0,-99.9,-100.00,NNE,24,0.0,4.0,-999,0.00,,,-99.99,,2013-03-19 15:03:00,
2013-03-19 09:13:00,10.0,-99.9,-100.00,NNE,24,0.0,4.0,-999,0.00,,,-99.99,,2013-03-19 15:13:00,
2013-03-19 09:23:00,11.0,-99.9,-100.00,North,0,0.0,0.0,-999,0.00,,,-99.99,,2013-03-19 15:23:00,
2013-03-19 09:34:00,11.0,-99.9,-100.00,North,0,0.0,0.0,-999,0.00,,,-99.99,,2013-03-19 15:34:00,
2013-03-19 09:44:00,11.0,-99.9,-100.00,North,0,0.0,0.0,-999,0.00,,,-99.99,,2013-03-19 15:44:00,
2013-03-19 09:54:00,11.0,-99.9,-100.00,North,0,0.0,0.0,-999,0.00,,,-99.99,,2013-03-19 15:54:00,
2013-03-19 10:04:00,13.0,-99.9,-100.00,North,0,0.0,0.0,-999,0.00,,,-99.99,,2013-03-19 16:04:00,
2013-03-19 10:13:00,13.0,-99.9,-100.00,North,0,0.0,0.0,-999,0.00,,,-99.99,,2013-03-19 16:13:00,
2013-03-19 10:24:00,14.0,-99.9,-100.00,North,0,0.0,0.0,-999,0.00,,,-99.99,,2013-03-19 16:24:00,
2013-03-19 10:34:00,15.0,-99.9,-100.00,North,0,0.0,0.0,-999,0.00,,,-99.99,,2013-03-19 16:34:00,
2013-03-19 10:44:00,15.0,-99.9,-100.00,North,0,0.0,0.0,-999,0.00,,,-99.99,,2013-03-19 16:44:00,
2013-03-19 10:55:00,16.0,-99.9,-100.00,NNE,18,3.0,6.0,-999,0.00,,,-99.99,,2013-03-19 16:55:00,
2013-03-19 11:03:00,16.0,-99.9,-100.00,NNE,30,4.0,5.0,-999,0.00,,,-99.99,,2013-03-19 17:03:00,
2013-03-19 11:14:00,17.0,-99.9,-100.00,NNE,21,1.0,5.0,-999,0.00,,,-99.99,,2013-03-19 17:14:00,
2013-03-19 11:24:00,17.0,-99.9,-100.00,NNE,21,1.0,5.0,-999,0.00,,,-99.99,,2013-03-19 17:24:00,
2013-03-19 11:35:00,17.0,-99.9,-100.00,NNE,27,4.0,6.0,-999,0.00,,,-99.99,,2013-03-19 17:35:00,
2013-03-19 11:44:00,17.0,-99.9,-100.00,NNE,27,4.0,6.0,-999,0.00,,,-99.99,,2013-03-19 17:44:00,
2013-03-19 11:53:00,17.0,-99.9,-100.00,NNE,13,5.0,7.0,-999,0.00,,,-99.99,,2013-03-19 17:53:00,
2013-03-19 12:03:00,18.0,-99.9,-100.00,North,0,0.0,0.0,-999,0.00,,,-99.99,,2013-03-19 18:03:00,
2013-03-19 12:14:00,18.0,-99.9,-100.00,North,0,0.0,0.0,-999,0.00,,,-99.99,,2013-03-19 18:14:00,
2013-03-19 12:23:00,19.0,-99.9,-100.00,NNE,20,5.0,7.0,-999,0.00,,,-99.99,,2013-03-19 18:23:00,
2013-03-19 12:34:00,19.0,-99.9,-100.00,NNE,15,4.0,7.0,-999,0.00,,,-99.99,,2013-03-19 18:34:00,
2013-03-19 12:44:00,19.0,-99.9,-100.00,NNE,15,4.0,7.0,-999,0.00,,,-99.99,,2013-03-19 18:44:00,
2013-03-19 12:54:00,19.0,-99.9,-100.00,North,7,4.0,8.0,-999,0.00,,,-99.99,,2013-03-19 18:54:00,
2013-03-19 13:03:00,19.0,-99.9,-100.00,ENE,68,2.0,6.0,-999,0.00,,,-99.99,,2013-03-19 19:03:00,
2013-03-19 13:13:00,19.0,-99.9,-100.00,ENE,68,2.0,6.0,-999,0.00,,,-99.99,,2013-03-19 19:13:00,
2013-03-19 13:23:00,20.0,-99.9,-100.00,NNE,15,6.0,9.0,-999,0.00,,,-99.99,,2013-03-19 19:23:00,
2013-03-19 13:33:00,20.0,-99.9,-100.00,NNE,20,4.0,8.0,-999,0.00,,,-99.99,,2013-03-19 19:33:00,
2013-03-19 13:43:00,20.0,-99.9,-100.00,NNE,20,4.0,8.0,-999,0.00,,,-99.99,,2013-03-19 19:43:00,
2013-03-19 13:53:00,21.0,-99.9,-100.00,NNE,15,5.0,8.0,-999,0.00,,,-99.99,,2013-03-19 19:53:00,
2013-03-19 14:03:00,21.0,-99.9,-100.00,North,6,6.0,9.0,-999,0.00,,,-99.99,,2013-03-19 20:03:00,
2013-03-19 14:12:00,22.0,-99.9,-100.00,NNE,21,4.0,7.0,-999,0.00,,,-99.99,,2013-03-19 20:12:00,
2013-03-19 14:23:00,22.0,-99.9,-100.00,NNE,21,4.0,7.0,-999,0.00,,,-99.99,,2013-03-19 20:23:00,
2013-03-19 14:33:00,23.0,-99.9,-100.00,North,11,3.0,8.0,-999,0.00,,,-99.99,,2013-03-19 20:33:00,
2013-03-19 14:43:00,23.0,-99.9,-100.00,North,11,3.0,8.0,-999,0.00,,,-99.99,,2013-03-19 20:43:00,
2013-03-19 14:53:00,23.0,-99.9,-100.00,NNE,14,3.0,6.0,-999,0.00,,,-99.99,,2013-03-19 20:53:00,
2013-03-19 15:03:00,23.0,-99.9,-100.00,NNE,18,5.0,7.0,-999,0.00,,,-99.99,,2013-03-19 21:03:00,
2013-03-19 15:12:00,24.0,-99.9,-100.00,NNE,15,5.0,9.0,-999,0.00,,,-99.99,,2013-03-19 21:12:00,
2013-03-19 15:23:00,24.0,-99.9,-100.00,NNE,15,5.0,9.0,-999,0.00,,,-99.99,,2013-03-19 21:23:00,
2013-03-19 15:35:00,24.0,-99.9,-100.00,NNE,17,5.0,8.0,-999,0.00,,,-99.99,,2013-03-19 21:35:00,
2013-03-19 15:43:00,24.0,-99.9,-100.00,NNE,17,5.0,8.0,-999,0.00,,,-99.99,,2013-03-19 21:43:00,
2013-03-19 15:54:00,25.0,-99.9,-100.00,NNE,20,2.0,7.0,-999,0.00,,,-99.99,,2013-03-19 21:54:00,
2013-03-19 16:03:00,25.0,-99.9,-100.00,NNE,13,6.0,8.0,-999,0.00,,,-99.99,,2013-03-19 22:03:00,
2013-03-19 16:13:00,25.0,-99.9,-100.00,North,10,6.0,10.0,-999,0.00,,,-99.99,,2013-03-19 22:13:00,
2013-03-19 16:24:00,25.0,-99.9,-100.00,North,10,6.0,10.0,-999,0.00,,,-99.99,,2013-03-19 22:24:00,
2013-03-19 16:34:00,26.0,-99.9,-100.00,NNE,14,5.0,9.0,-999,0.00,,,-99.99,,2013-03-19 22:34:00,
2013-03-19 16:44:00,26.0,-99.9,-100.00,North,359,4.0,7.0,-999,0.00,,,-99.99,,2013-03-19 22:44:00,
2013-03-19 16:54:00,26.0,-99.9,-100.00,North,359,4.0,7.0,-999,0.00,,,-99.99,,2013-03-19 22:54:00,
2013-03-19 17:03:00,26.0,-99.9,-100.00,NNE,17,4.0,8.0,-999,0.00,,,-99.99,,2013-03-19 23:03:00,
2013-03-19 17:13:00,27.0,-99.9,-100.00,NNE,23,1.0,7.0,-999,0.00,,,-99.99,,2013-03-19 23:13:00,
2013-03-19 17:22:00,27.0,-99.9,-100.00,NNE,23,1.0,7.0,-999,0.00,,,-99.99,,2013-03-19 23:22:00,
2013-03-19 17:33:00,27.0,-99.9,-100.00,NNE,23,4.0,7.0,-999,0.00,,,-99.99,,2013-03-19 23:33:00,
2013-03-19 17:43:00,27.0,-99.9,-100.00,NNE,23,4.0,7.0,-999,0.00,,,-99.99,,2013-03-19 23:43:00,
2013-03-19 17:53:00,27.0,-99.9,-100.00,North,11,3.0,6.0,-999,0.00,,,-99.99,,2013-03-19 23:53:00,
2013-03-19 18:03:00,27.0,-99.9,-100.00,NNE,13,5.0,8.0,-999,0.00,,,-99.99,,2013-03-20 00:03:00,
2013-03-19 18:13:00,27.0,-99.9,-100.00,NNE,13,5.0,8.0,-999,0.00,,,-99.99,,2013-03-20 00:13:00,
2013-03-19 18:22:00,27.0,-99.9,-100.00,NNE,30,2.0,6.0,-999,0.00,,,-99.99,,2013-03-20 00:22:00,
2013-03-19 18:33:00,26.0,-99.9,-100.00,NNE,25,1.0,5.0,-999,0.00,,,-99.99,,2013-03-20 00:33:00,
2013-03-19 18:43:00,26.0,-99.9,-100.00,NNE,25,1.0,5.0,-999,0.00,,,-99.99,,2013-03-20 00:43:00,
2013-03-19 18:53:00,25.0,-99.9,-100.00,North,0,0.0,0.0,-999,0.00,,,-99.99,,2013-03-20 00:53:00,
2013-03-19 19:03:00,24.0,-99.9,-100.00,North,0,0.0,0.0,-999,0.00,,,-99.99,,2013-03-20 01:03:00,
2013-03-19 19:12:00,21.0,-99.9,-100.00,North,0,0.0,0.0,-999,0.00,,,-99.99,,2013-03-20 01:12:00,
2013-03-19 19:23:00,21.0,-99.9,-100.00,North,0,0.0,0.0,-999,0.00,,,-99.99,,2013-03-20 01:23:00,
2013-03-19 19:33:00,19.0,-99.9,-100.00,North,0,0.0,0.0,-999,0.00,,,-99.99,,2013-03-20 01:33:00,
2013-03-19 19:43:00,19.0,-99.9,-100.00,North,0,0.0,0.0,-999,0.00,,,-99.99,,2013-03-20 01:43:00,
2013-03-19 19:53:00,18.0,-99.9,-100.00,North,0,0.0,0.0,-999,0.00,,,-99.99,,2013-03-20 01:53:00,
2013-03-19 20:03:00,17.0,-99.9,-100.00,North,0,0.0,0.0,-999,0.00,,,-99.99,,2013-03-20 02:03:00,
2013-03-19 20:12:00,17.0,-99.9,-100.00,North,0,0.0,0.0,-999,0.00,,,-99.99,,2013-03-20 02:12:00,
2013-03-19 20:23:00,16.0,-99.9,-100.00,North,0,0.0,0.0,-999,0.00,,,-99.99,,2013-03-20 02:23:00,
2013-03-19 20:33:00,16.0,-99.9,-100.00,North,0,0.0,0.0,-999,0.00,,,-99.99,,2013-03-20 02:33:00,
2013-03-19 20:43:00,16.0,-99.9,-100.00,North,0,0.0,0.0,-999,0.00,,,-99.99,,2013-03-20 02:43:00,
2013-03-19 20:53:00,17.0,-99.9,-100.00,North,0,0.0,0.0,-999,0.00,,,-99.99,,2013-03-20 02:53:00,
2013-03-19 21:02:00,16.0,-99.9,-100.00,North,0,0.0,0.0,-999,0.00,,,-99.99,,2013-03-20 03:02:00,
2013-03-19 21:12:00,16.0,-99.9,-100.00,North,0,0.0,0.0,-999,0.00,,,-99.99,,2013-03-20 03:12:00,
2013-03-19 21:23:00,16.0,-99.9,-100.00,North,0,0.0,0.0,-999,0.00,,,-99.99,,2013-03-20 03:23:00,
2013-03-19 21:35:00,15.0,-99.9,-100.00,North,0,0.0,0.0,-999,0.00,,,-99.99,,2013-03-20 03:35:00,
2013-03-19 21:43:00,15.0,-99.9,-100.00,North,0,0.0,0.0,-999,0.00,,,-99.99,,2013-03-20 03:43:00,
2013-03-19 22:03:00,14.0,-99.9,-100.00,North,0,0.0,0.0,-999,0.00,,,-99.99,,2013-03-20 04:03:00,
2013-03-19 22:12:00,14.0,-99.9,-100.00,North,0,0.0,0.0,-999,0.00,,,-99.99,,2013-03-20 04:12:00,
2013-03-19 22:23:00,15.0,-99.9,-100.00,North,0,0.0,0.0,-999,0.00,,,-99.99,,2013-03-20 04:23:00,
2013-03-19 22:32:00,15.0,-99.9,-100.00,North,0,0.0,0.0,-999,0.00,,,-99.99,,2013-03-20 04:32:00,
2013-03-19 22:44:00,15.0,-99.9,-100.00,North,0,0.0,0.0,-999,0.00,,,-99.99,,2013-03-20 04:44:00,
2013-03-19 22:53:00,15.0,-99.9,-100.00,North,0,0.0,0.0,-999,0.00,,,-99.99,,2013-03-20 04:53:00,
2013-03-19 23:03:00,14.0,-99.9,-100.00,North,0,0.0,0.0,-999,0.00,,,-99.99,,2013-03-20 05:03:00,
2013-03-19 23:13:00,14.0,-99.9,-100.00,North,0,0.0,0.0,-999,0.00,,,-99.99,,2013-03-20 05:13:00,
2013-03-19 23:23:00,14.0,-99.9,-100.00,North,0,0.0,0.0,-999,0.00,,,-99.99,,2013-03-20 05:23:00,
2013-03-19 23:33:00,13.0,-99.9,-100.00,North,0,0.0,0.0,-999,0.00,,,-99.99,,2013-03-20 05:33:00,
2013-03-19 23:43:00,13.0,-99.9,-100.00,North,0,0.0,0.0,-999,0.00,,,-99.99,,2013-03-20 05:43:00,
2013-03-19 23:53:00,15.0,-99.9,-100.00,North,0,0.0,0.0,-999,0.00,,,-99.99,,2013-03-20 05:53:00,